sensor_id;sensor_type;location;lat;lon;timestamp;pressure;altitude;pressure_sealevel;temperature;humidity
31538;BME280;18147;51.952;6.146;2023-01-31T00:00:49;102318.81;;;2.20;100.00
31538;BME280;18147;51.952;6.146;2023-01-31T00:03:15;102320.63;;;2.12;100.00
31538;BME280;18147;51.952;6.146;2023-01-31T00:05:40;102327.59;;;2.19;100.00
31538;BME280;18147;51.952;6.146;2023-01-31T00:08:06;102324.16;;;2.06;100.00
31538;BME280;18147;51.952;6.146;2023-01-31T00:10:31;102320.59;;;2.17;100.00
31538;BME280;18147;51.952;6.146;2023-01-31T00:12:56;102322.16;;;2.50;100.00
31538;BME280;18147;51.952;6.146;2023-01-31T00:15:22;102321.25;;;2.55;100.00
31538;BME280;18147;51.952;6.146;2023-01-31T00:17:47;102325.53;;;2.72;100.00
31538;BME280;18147;51.952;6.146;2023-01-31T00:20:13;102331.69;;;2.72;100.00
31538;BME280;18147;51.952;6.146;2023-01-31T00:22:38;102326.38;;;2.78;100.00
31538;BME280;18147;51.952;6.146;2023-01-31T00:25:04;102324.56;;;2.85;100.00
31538;BME280;18147;51.952;6.146;2023-01-31T00:27:30;102325.38;;;2.90;100.00
31538;BME280;18147;51.952;6.146;2023-01-31T00:29:55;102333.31;;;2.89;100.00
31538;BME280;18147;51.952;6.146;2023-01-31T00:32:21;102320.19;;;2.82;100.00
31538;BME280;18147;51.952;6.146;2023-01-31T00:34:49;102313.16;;;2.83;100.00
31538;BME280;18147;51.952;6.146;2023-01-31T00:37:14;102316.59;;;2.93;100.00
31538;BME280;18147;51.952;6.146;2023-01-31T00:39:40;102313.13;;;2.84;100.00
31538;BME280;18147;51.952;6.146;2023-01-31T00:42:07;102319.28;;;2.87;100.00
31538;BME280;18147;51.952;6.146;2023-01-31T00:44:32;102307.81;;;2.94;100.00
31538;BME280;18147;51.952;6.146;2023-01-31T00:46:58;102304.34;;;2.87;100.00
31538;BME280;18147;51.952;6.146;2023-01-31T00:49:23;102314.03;;;2.80;100.00
31538;BME280;18147;51.952;6.146;2023-01-31T00:51:49;102302.56;;;2.89;100.00
31538;BME280;18147;51.952;6.146;2023-01-31T00:54:14;102292.97;;;2.83;100.00
31538;BME280;18147;51.952;6.146;2023-01-31T00:56:39;102294.78;;;2.74;100.00
31538;BME280;18147;51.952;6.146;2023-01-31T00:59:05;102291.22;;;2.79;100.00
31538;BME280;18147;51.952;6.146;2023-01-31T01:01:34;102288.69;;;2.66;100.00
31538;BME280;18147;51.952;6.146;2023-01-31T01:04:00;102293.03;;;2.74;100.00
31538;BME280;18147;51.952;6.146;2023-01-31T01:06:31;102288.69;;;2.67;100.00
31538;BME280;18147;51.952;6.146;2023-01-31T01:08:57;102283.38;;;2.75;100.00
31538;BME280;18147;51.952;6.146;2023-01-31T01:11:33;102283.41;;;2.70;100.00
31538;BME280;18147;51.952;6.146;2023-01-31T01:14:00;102284.31;;;2.65;100.00
31538;BME280;18147;51.952;6.146;2023-01-31T01:16:33;102281.75;;;2.58;100.00
31538;BME280;18147;51.952;6.146;2023-01-31T01:19:05;102281.75;;;2.58;100.00
31538;BME280;18147;51.952;6.146;2023-01-31T01:21:31;102287.94;;;2.50;100.00
31538;BME280;18147;51.952;6.146;2023-01-31T01:23:59;102282.63;;;2.54;100.00
31538;BME280;18147;51.952;6.146;2023-01-31T01:26:28;102293.25;;;2.39;100.00
31538;BME280;18147;51.952;6.146;2023-01-31T01:28:56;102289.81;;;2.32;100.00
31538;BME280;18147;51.952;6.146;2023-01-31T01:31:22;102287.97;;;2.41;100.00
31538;BME280;18147;51.952;6.146;2023-01-31T01:33:55;102292.38;;;2.42;100.00
31538;BME280;18147;51.952;6.146;2023-01-31T01:36:23;102288.91;;;2.37;100.00
31538;BME280;18147;51.952;6.146;2023-01-31T01:38:50;102293.34;;;2.31;100.00
31538;BME280;18147;51.952;6.146;2023-01-31T01:41:16;102292.41;;;2.37;100.00
31538;BME280;18147;51.952;6.146;2023-01-31T01:43:49;102287.03;;;2.51;100.00
31538;BME280;18147;51.952;6.146;2023-01-31T01:46:39;102293.16;;;2.54;100.00
31538;BME280;18147;51.952;6.146;2023-01-31T01:49:29;102294.00;;;2.59;100.00
31538;BME280;18147;51.952;6.146;2023-01-31T01:51:59;102293.16;;;2.54;100.00
31538;BME280;18147;51.952;6.146;2023-01-31T01:54:32;102299.31;;;2.55;100.00
31538;BME280;18147;51.952;6.146;2023-01-31T01:57:03;102297.53;;;2.58;100.00
31538;BME280;18147;51.952;6.146;2023-01-31T01:59:34;102304.53;;;2.63;100.00
31538;BME280;18147;51.952;6.146;2023-01-31T02:02:02;102304.59;;;2.56;100.00
31538;BME280;18147;51.952;6.146;2023-01-31T02:04:31;102303.72;;;2.53;100.00
31538;BME280;18147;51.952;6.146;2023-01-31T02:06:58;102301.22;;;2.31;100.00
31538;BME280;18147;51.952;6.146;2023-01-31T02:09:38;102303.03;;;2.16;100.00
31538;BME280;18147;51.952;6.146;2023-01-31T02:12:08;102299.56;;;2.17;100.00
31538;BME280;18147;51.952;6.146;2023-01-31T02:14:34;102295.31;;;1.82;100.00
31538;BME280;18147;51.952;6.146;2023-01-31T02:17:00;102294.44;;;1.81;100.00
31538;BME280;18147;51.952;6.146;2023-01-31T02:19:37;102298.00;;;1.68;100.00
31538;BME280;18147;51.952;6.146;2023-01-31T02:22:34;102297.97;;;1.76;100.00
31538;BME280;18147;51.952;6.146;2023-01-31T02:25:39;102304.06;;;1.84;100.00
31538;BME280;18147;51.952;6.146;2023-01-31T02:39:09;102295.06;;;2.34;100.00
31538;BME280;18147;51.952;6.146;2023-01-31T02:42:06;102292.31;;;2.51;100.00
31538;BME280;18147;51.952;6.146;2023-01-31T02:44:57;102283.50;;;2.58;100.00
31538;BME280;18147;51.952;6.146;2023-01-31T02:50:23;102273.53;;;2.98;100.00
31538;BME280;18147;51.952;6.146;2023-01-31T02:53:02;102273.56;;;2.94;100.00
31538;BME280;18147;51.952;6.146;2023-01-31T02:58:20;102264.56;;;3.16;100.00
31538;BME280;18147;51.952;6.146;2023-01-31T03:00:47;102259.25;;;3.19;100.00
31538;BME280;18147;51.952;6.146;2023-01-31T03:03:26;102252.22;;;3.20;100.00
31538;BME280;18147;51.952;6.146;2023-01-31T03:08:37;102255.63;;;3.29;100.00
31538;BME280;18147;51.952;6.146;2023-01-31T03:11:06;102249.66;;;3.14;100.00
31538;BME280;18147;51.952;6.146;2023-01-31T03:16:05;102242.41;;;3.37;100.00
31538;BME280;18147;51.952;6.146;2023-01-31T03:19:27;102231.88;;;3.34;100.00
31538;BME280;18147;51.952;6.146;2023-01-31T03:22:00;102239.72;;;3.38;100.00
31538;BME280;18147;51.952;6.146;2023-01-31T03:24:28;102229.03;;;3.51;100.00
31538;BME280;18147;51.952;6.146;2023-01-31T03:26:57;102231.84;;;3.35;100.00
31538;BME280;18147;51.952;6.146;2023-01-31T03:29:27;102226.72;;;3.23;100.00
31538;BME280;18147;51.952;6.146;2023-01-31T03:31:58;102234.34;;;3.49;100.00
31538;BME280;18147;51.952;6.146;2023-01-31T03:34:25;102233.63;;;3.36;100.00
31538;BME280;18147;51.952;6.146;2023-01-31T03:36:59;102233.47;;;3.49;100.00
31538;BME280;18147;51.952;6.146;2023-01-31T03:40:14;102228.09;;;3.58;100.00
31538;BME280;18147;51.952;6.146;2023-01-31T03:42:46;102227.09;;;3.67;100.00
31538;BME280;18147;51.952;6.146;2023-01-31T03:45:33;102222.50;;;3.82;100.00
31538;BME280;18147;51.952;6.146;2023-01-31T03:48:01;102222.38;;;3.92;100.00
31538;BME280;18147;51.952;6.146;2023-01-31T03:50:36;102224.72;;;4.13;100.00
31538;BME280;18147;51.952;6.146;2023-01-31T03:53:08;102223.84;;;4.11;100.00
31538;BME280;18147;51.952;6.146;2023-01-31T03:58:31;102235.16;;;4.22;100.00
31538;BME280;18147;51.952;6.146;2023-01-31T04:01:01;102229.72;;;4.33;100.00
31538;BME280;18147;51.952;6.146;2023-01-31T04:03:38;102221.66;;;4.40;100.00
31538;BME280;18147;51.952;6.146;2023-01-31T04:06:05;102214.53;;;4.47;100.00
31538;BME280;18147;51.952;6.146;2023-01-31T04:08:33;102219.81;;;4.46;100.00
31538;BME280;18147;51.952;6.146;2023-01-31T04:11:07;102209.13;;;4.53;100.00
31538;BME280;18147;51.952;6.146;2023-01-31T04:13:33;102210.91;;;4.51;100.00
31538;BME280;18147;51.952;6.146;2023-01-31T04:15:59;102197.69;;;4.53;100.00
31538;BME280;18147;51.952;6.146;2023-01-31T04:18:24;102198.56;;;4.53;100.00
31538;BME280;18147;51.952;6.146;2023-01-31T04:20:49;102201.25;;;4.50;100.00
31538;BME280;18147;51.952;6.146;2023-01-31T04:23:15;102195.13;;;4.48;100.00
31538;BME280;18147;51.952;6.146;2023-01-31T04:25:43;102201.34;;;4.44;100.00
31538;BME280;18147;51.952;6.146;2023-01-31T04:28:09;102203.09;;;4.45;100.00
31538;BME280;18147;51.952;6.146;2023-01-31T04:30:34;102200.53;;;4.40;100.00
31538;BME280;18147;51.952;6.146;2023-01-31T04:33:00;102196.00;;;4.49;100.00
31538;BME280;18147;51.952;6.146;2023-01-31T04:35:25;102182.78;;;4.49;100.00
31538;BME280;18147;51.952;6.146;2023-01-31T04:37:50;102181.25;;;4.37;100.00
31538;BME280;18147;51.952;6.146;2023-01-31T04:40:16;102182.03;;;4.40;100.00
31538;BME280;18147;51.952;6.146;2023-01-31T04:42:42;102180.09;;;4.52;100.00
31538;BME280;18147;51.952;6.146;2023-01-31T04:45:07;102177.44;;;4.53;100.00
31538;BME280;18147;51.952;6.146;2023-01-31T04:47:33;102173.94;;;4.53;100.00
31538;BME280;18147;51.952;6.146;2023-01-31T04:49:59;102180.22;;;4.44;100.00
31538;BME280;18147;51.952;6.146;2023-01-31T04:52:24;102176.69;;;4.45;100.00
31538;BME280;18147;51.952;6.146;2023-01-31T04:54:50;102179.31;;;4.45;100.00
31538;BME280;18147;51.952;6.146;2023-01-31T04:57:15;102167.78;;;4.51;100.00
31538;BME280;18147;51.952;6.146;2023-01-31T04:59:41;102162.50;;;4.52;100.00
31538;BME280;18147;51.952;6.146;2023-01-31T05:02:06;102158.94;;;4.53;100.00
31538;BME280;18147;51.952;6.146;2023-01-31T05:04:32;102159.22;;;4.38;100.00
31538;BME280;18147;51.952;6.146;2023-01-31T05:06:57;102152.88;;;4.48;100.00
31538;BME280;18147;51.952;6.146;2023-01-31T05:09:23;102151.03;;;4.52;100.00
31538;BME280;18147;51.952;6.146;2023-01-31T05:11:49;102153.09;;;4.34;100.00
31538;BME280;18147;51.952;6.146;2023-01-31T05:14:15;102139.09;;;4.29;100.00
31538;BME280;18147;51.952;6.146;2023-01-31T05:16:41;102133.72;;;4.35;100.00
31538;BME280;18147;51.952;6.146;2023-01-31T05:19:10;102129.19;;;4.44;100.00
31538;BME280;18147;51.952;6.146;2023-01-31T05:21:35;102122.16;;;4.41;100.00
31538;BME280;18147;51.952;6.146;2023-01-31T05:24:22;102125.75;;;4.38;100.00
31538;BME280;18147;51.952;6.146;2023-01-31T05:26:49;102124.84;;;4.39;100.00
31538;BME280;18147;51.952;6.146;2023-01-31T05:29:17;102121.38;;;4.36;100.00
31538;BME280;18147;51.952;6.146;2023-01-31T05:31:43;102127.66;;;4.29;100.00
31538;BME280;18147;51.952;6.146;2023-01-31T05:34:09;102131.81;;;4.44;100.00
31538;BME280;18147;51.952;6.146;2023-01-31T05:36:36;102143.28;;;4.43;100.00
31538;BME280;18147;51.952;6.146;2023-01-31T05:39:01;102139.66;;;4.48;100.00
31538;BME280;18147;51.952;6.146;2023-01-31T05:41:27;102140.53;;;4.49;100.00
31538;BME280;18147;51.952;6.146;2023-01-31T05:43:52;102126.38;;;4.53;100.00
31538;BME280;18147;51.952;6.146;2023-01-31T05:46:18;102125.41;;;4.58;100.00
31538;BME280;18147;51.952;6.146;2023-01-31T05:48:43;102121.91;;;4.56;100.00
31538;BME280;18147;51.952;6.146;2023-01-31T05:51:09;102123.00;;;4.45;100.00
31538;BME280;18147;51.952;6.146;2023-01-31T05:53:34;102107.22;;;4.40;100.00
31538;BME280;18147;51.952;6.146;2023-01-31T05:56:00;102097.41;;;4.48;100.00
31538;BME280;18147;51.952;6.146;2023-01-31T05:58:25;102090.50;;;4.39;100.00
31538;BME280;18147;51.952;6.146;2023-01-31T06:00:54;102085.28;;;4.36;100.00
31538;BME280;18147;51.952;6.146;2023-01-31T06:03:20;102091.22;;;4.49;100.00
31538;BME280;18147;51.952;6.146;2023-01-31T06:05:45;102100.88;;;4.50;100.00
31538;BME280;18147;51.952;6.146;2023-01-31T06:08:11;102088.53;;;4.52;100.00
31538;BME280;18147;51.952;6.146;2023-01-31T06:10:37;102090.94;;;4.64;100.00
31538;BME280;18147;51.952;6.146;2023-01-31T06:13:02;102088.63;;;4.48;100.00
31538;BME280;18147;51.952;6.146;2023-01-31T06:15:28;102099.19;;;4.46;100.00
31538;BME280;18147;51.952;6.146;2023-01-31T06:17:53;102091.97;;;4.57;100.00
31538;BME280;18147;51.952;6.146;2023-01-31T06:20:19;102085.81;;;4.57;100.00
31538;BME280;18147;51.952;6.146;2023-01-31T06:22:44;102085.78;;;4.58;100.00
31538;BME280;18147;51.952;6.146;2023-01-31T06:25:09;102086.75;;;4.53;100.00
31538;BME280;18147;51.952;6.146;2023-01-31T06:27:35;102076.28;;;4.48;100.00
31538;BME280;18147;51.952;6.146;2023-01-31T06:30:00;102075.34;;;4.51;100.00
31538;BME280;18147;51.952;6.146;2023-01-31T06:32:26;102076.28;;;4.47;100.00
31538;BME280;18147;51.952;6.146;2023-01-31T06:34:51;102077.91;;;4.57;100.00
31538;BME280;18147;51.952;6.146;2023-01-31T06:37:17;102084.06;;;4.56;100.00
31538;BME280;18147;51.952;6.146;2023-01-31T06:39:42;102074.44;;;4.53;100.00
31538;BME280;18147;51.952;6.146;2023-01-31T06:42:07;102076.94;;;4.59;100.00
31538;BME280;18147;51.952;6.146;2023-01-31T06:44:33;102072.00;;;4.43;100.00
31538;BME280;18147;51.952;6.146;2023-01-31T06:46:59;102059.66;;;4.41;100.00
31538;BME280;18147;51.952;6.146;2023-01-31T06:49:25;102057.84;;;4.45;100.00
31538;BME280;18147;51.952;6.146;2023-01-31T06:51:50;102067.53;;;4.45;100.00
31538;BME280;18147;51.952;6.146;2023-01-31T06:54:16;102067.50;;;4.46;100.00
31538;BME280;18147;51.952;6.146;2023-01-31T06:56:41;102085.13;;;4.46;100.00
31538;BME280;18147;51.952;6.146;2023-01-31T06:59:07;102076.16;;;4.54;100.00
31538;BME280;18147;51.952;6.146;2023-01-31T07:01:32;102069.97;;;4.55;100.00
31538;BME280;18147;51.952;6.146;2023-01-31T07:03:57;102076.25;;;4.50;100.00
31538;BME280;18147;51.952;6.146;2023-01-31T07:06:23;102066.59;;;4.49;100.00
31538;BME280;18147;51.952;6.146;2023-01-31T07:08:48;102055.69;;;4.65;100.00
31538;BME280;18147;51.952;6.146;2023-01-31T07:11:14;102052.28;;;4.60;100.00
31538;BME280;18147;51.952;6.146;2023-01-31T07:13:39;102060.06;;;4.68;100.00
31538;BME280;18147;51.952;6.146;2023-01-31T07:16:05;102068.00;;;4.68;100.00
31538;BME280;18147;51.952;6.146;2023-01-31T07:18:30;102061.00;;;4.64;100.00
31538;BME280;18147;51.952;6.146;2023-01-31T07:20:56;102060.84;;;4.72;100.00
31538;BME280;18147;51.952;6.146;2023-01-31T07:23:21;102063.50;;;4.72;100.00
31538;BME280;18147;51.952;6.146;2023-01-31T07:25:46;102061.78;;;4.69;100.00
31538;BME280;18147;51.952;6.146;2023-01-31T07:28:12;102063.56;;;4.68;100.00
31538;BME280;18147;51.952;6.146;2023-01-31T07:30:37;102059.16;;;4.69;100.00
31538;BME280;18147;51.952;6.146;2023-01-31T07:33:04;102060.81;;;4.75;100.00
31538;BME280;18147;51.952;6.146;2023-01-31T07:35:29;102071.28;;;4.79;100.00
31538;BME280;18147;51.952;6.146;2023-01-31T07:37:55;102056.44;;;4.74;100.00
31538;BME280;18147;51.952;6.146;2023-01-31T07:40:20;102055.44;;;4.79;100.00
31538;BME280;18147;51.952;6.146;2023-01-31T07:42:46;102059.41;;;5.00;100.00
31538;BME280;18147;51.952;6.146;2023-01-31T07:45:14;102051.66;;;4.91;100.00
31538;BME280;18147;51.952;6.146;2023-01-31T07:47:39;102047.13;;;4.98;100.00
31538;BME280;18147;51.952;6.146;2023-01-31T07:50:06;102029.41;;;5.03;100.00
31538;BME280;18147;51.952;6.146;2023-01-31T07:52:32;102038.22;;;5.02;100.00
31538;BME280;18147;51.952;6.146;2023-01-31T07:54:58;102030.38;;;4.99;100.00
31538;BME280;18147;51.952;6.146;2023-01-31T07:57:23;102024.22;;;4.98;100.00
31538;BME280;18147;51.952;6.146;2023-01-31T07:59:48;102030.19;;;5.08;100.00
31538;BME280;18147;51.952;6.146;2023-01-31T08:02:15;102033.75;;;5.05;100.00
31538;BME280;18147;51.952;6.146;2023-01-31T08:05:00;102030.72;;;5.24;100.00
31538;BME280;18147;51.952;6.146;2023-01-31T08:07:26;102024.47;;;5.26;100.00
31538;BME280;18147;51.952;6.146;2023-01-31T08:09:52;102013.13;;;5.23;100.00
31538;BME280;18147;51.952;6.146;2023-01-31T08:12:17;102012.81;;;5.35;100.00
31538;BME280;18147;51.952;6.146;2023-01-31T08:14:43;102012.88;;;5.32;100.00
31538;BME280;18147;51.952;6.146;2023-01-31T08:17:09;102009.31;;;5.34;100.00
31538;BME280;18147;51.952;6.146;2023-01-31T08:19:35;102001.44;;;5.31;100.00
31538;BME280;18147;51.952;6.146;2023-01-31T08:22:02;102012.06;;;5.30;100.00
31538;BME280;18147;51.952;6.146;2023-01-31T08:24:29;102011.97;;;5.34;100.00
31538;BME280;18147;51.952;6.146;2023-01-31T08:26:55;102007.31;;;5.44;100.00
31538;BME280;18147;51.952;6.146;2023-01-31T08:29:20;102003.25;;;5.29;100.00
31538;BME280;18147;51.952;6.146;2023-01-31T08:31:46;101992.75;;;5.26;100.00
31538;BME280;18147;51.952;6.146;2023-01-31T08:34:11;101997.72;;;5.40;100.00
31538;BME280;18147;51.952;6.146;2023-01-31T08:36:37;101977.28;;;5.46;100.00
31538;BME280;18147;51.952;6.146;2023-01-31T08:39:03;101979.06;;;5.46;100.00
31538;BME280;18147;51.952;6.146;2023-01-31T08:41:29;101971.22;;;5.43;100.00
31538;BME280;18147;51.952;6.146;2023-01-31T08:43:56;101973.53;;;5.55;100.00
31538;BME280;18147;51.952;6.146;2023-01-31T08:46:27;101967.97;;;5.67;100.00
31538;BME280;18147;51.952;6.146;2023-01-31T08:48:54;101962.47;;;5.75;100.00
31538;BME280;18147;51.952;6.146;2023-01-31T08:51:20;101970.56;;;5.69;100.00
31538;BME280;18147;51.952;6.146;2023-01-31T08:53:46;101963.28;;;5.79;100.00
31538;BME280;18147;51.952;6.146;2023-01-31T08:56:12;101970.34;;;5.77;100.00
31538;BME280;18147;51.952;6.146;2023-01-31T08:58:40;101957.06;;;5.80;100.00
31538;BME280;18147;51.952;6.146;2023-01-31T09:01:14;101977.09;;;5.90;100.00
31538;BME280;18147;51.952;6.146;2023-01-31T09:03:40;101970.88;;;5.91;100.00
31538;BME280;18147;51.952;6.146;2023-01-31T09:06:09;101967.09;;;6.03;100.00
31538;BME280;18147;51.952;6.146;2023-01-31T09:08:35;101946.09;;;5.95;100.00
31538;BME280;18147;51.952;6.146;2023-01-31T09:11:00;101958.13;;;6.08;100.00
31538;BME280;18147;51.952;6.146;2023-01-31T09:13:27;101949.94;;;6.16;100.00
31538;BME280;18147;51.952;6.146;2023-01-31T09:15:58;101950.38;;;6.01;100.00
31538;BME280;18147;51.952;6.146;2023-01-31T09:18:23;101951.28;;;6.00;100.00
31538;BME280;18147;51.952;6.146;2023-01-31T09:20:49;101958.34;;;5.99;100.00
31538;BME280;18147;51.952;6.146;2023-01-31T09:23:14;101953.88;;;6.01;100.00
31538;BME280;18147;51.952;6.146;2023-01-31T09:25:39;101948.22;;;6.15;100.00
31538;BME280;18147;51.952;6.146;2023-01-31T09:28:05;101936.53;;;6.22;100.00
31538;BME280;18147;51.952;6.146;2023-01-31T09:30:30;101938.56;;;6.14;100.00
31538;BME280;18147;51.952;6.146;2023-01-31T09:32:58;101942.84;;;6.18;100.00
31538;BME280;18147;51.952;6.146;2023-01-31T09:35:25;101942.56;;;6.27;100.00
31538;BME280;18147;51.952;6.146;2023-01-31T09:37:51;101947.56;;;6.39;100.00
31538;BME280;18147;51.952;6.146;2023-01-31T09:40:20;101948.91;;;6.23;100.00
31538;BME280;18147;51.952;6.146;2023-01-31T09:42:50;101948.63;;;6.32;100.00
31538;BME280;18147;51.952;6.146;2023-01-31T09:45:33;101958.94;;;6.43;100.00
31538;BME280;18147;51.952;6.146;2023-01-31T09:48:01;101937.34;;;6.26;100.00
31538;BME280;18147;51.952;6.146;2023-01-31T09:50:34;101951.13;;;6.37;100.00
31538;BME280;18147;51.952;6.146;2023-01-31T09:53:01;101946.88;;;6.33;100.00
31538;BME280;18147;51.952;6.146;2023-01-31T09:56:17;101953.91;;;6.34;100.00
31538;BME280;18147;51.952;6.146;2023-01-31T10:04:19;101946.75;;;6.36;100.00
31538;BME280;18147;51.952;6.146;2023-01-31T10:07:12;101945.31;;;6.24;100.00
31538;BME280;18147;51.952;6.146;2023-01-31T10:12:41;101942.56;;;6.29;100.00
31538;BME280;18147;51.952;6.146;2023-01-31T10:15:51;101935.06;;;6.12;100.00
31538;BME280;18147;51.952;6.146;2023-01-31T10:18:33;101941.75;;;6.25;100.00
31538;BME280;18147;51.952;6.146;2023-01-31T10:21:12;101939.06;;;6.27;100.00
31538;BME280;18147;51.952;6.146;2023-01-31T10:23:44;101936.41;;;6.28;100.00
31538;BME280;18147;51.952;6.146;2023-01-31T10:26:33;101930.13;;;6.31;100.00
31538;BME280;18147;51.952;6.146;2023-01-31T10:31:51;101917.72;;;6.33;100.00
31538;BME280;18147;51.952;6.146;2023-01-31T10:36:59;101913.72;;;6.49;100.00
31538;BME280;18147;51.952;6.146;2023-01-31T10:39:36;101903.78;;;6.56;100.00
31538;BME280;18147;51.952;6.146;2023-01-31T10:42:17;101906.72;;;6.46;100.00
31538;BME280;18147;51.952;6.146;2023-01-31T10:44:56;101909.00;;;6.59;100.00
31538;BME280;18147;51.952;6.146;2023-01-31T10:47:29;101912.75;;;6.52;100.00
31538;BME280;18147;51.952;6.146;2023-01-31T10:49:55;101910.75;;;6.60;100.00
31538;BME280;18147;51.952;6.146;2023-01-31T10:57:23;101910.88;;;6.55;100.00
31538;BME280;18147;51.952;6.146;2023-01-31T10:59:49;101890.22;;;6.66;100.00
31538;BME280;18147;51.952;6.146;2023-01-31T11:02:24;101890.47;;;6.59;100.00
31538;BME280;18147;51.952;6.146;2023-01-31T11:04:53;101891.09;;;6.67;100.00
31538;BME280;18147;51.952;6.146;2023-01-31T11:07:19;101885.03;;;6.63;100.00
31538;BME280;18147;51.952;6.146;2023-01-31T11:09:51;101893.50;;;6.74;100.00
31538;BME280;18147;51.952;6.146;2023-01-31T11:12:37;101901.53;;;6.73;100.00
31538;BME280;18147;51.952;6.146;2023-01-31T11:15:15;101886.16;;;6.55;100.00
31538;BME280;18147;51.952;6.146;2023-01-31T11:17:42;101876.28;;;6.60;100.00
31538;BME280;18147;51.952;6.146;2023-01-31T11:20:44;101877.03;;;6.65;100.00
31538;BME280;18147;51.952;6.146;2023-01-31T11:23:13;101880.78;;;6.58;100.00
31538;BME280;18147;51.952;6.146;2023-01-31T11:25:46;101876.16;;;6.64;100.00
31538;BME280;18147;51.952;6.146;2023-01-31T11:28:32;101873.22;;;6.73;100.00
31538;BME280;18147;51.952;6.146;2023-01-31T11:30:59;101878.63;;;6.70;100.00
31538;BME280;18147;51.952;6.146;2023-01-31T11:33:43;101889.28;;;6.69;100.00
31538;BME280;18147;51.952;6.146;2023-01-31T11:36:15;101878.94;;;6.60;100.00
31538;BME280;18147;51.952;6.146;2023-01-31T11:38:41;101886.84;;;6.61;100.00
31538;BME280;18147;51.952;6.146;2023-01-31T11:41:27;101885.97;;;6.61;100.00
31538;BME280;18147;51.952;6.146;2023-01-31T11:44:13;101864.56;;;6.68;100.00
31538;BME280;18147;51.952;6.146;2023-01-31T11:49:20;101853.97;;;6.67;100.00
31538;BME280;18147;51.952;6.146;2023-01-31T11:51:47;101856.41;;;6.74;100.00
31538;BME280;18147;51.952;6.146;2023-01-31T11:54:23;101843.94;;;6.78;100.00
31538;BME280;18147;51.952;6.146;2023-01-31T11:56:50;101829.84;;;6.76;100.00
31538;BME280;18147;51.952;6.146;2023-01-31T11:59:19;101835.97;;;6.78;100.00
31538;BME280;18147;51.952;6.146;2023-01-31T12:01:50;101839.09;;;6.91;100.00
31538;BME280;18147;51.952;6.146;2023-01-31T12:04:23;101832.06;;;6.90;100.00
31538;BME280;18147;51.952;6.146;2023-01-31T12:07:05;101829.63;;;6.82;100.00
31538;BME280;18147;51.952;6.146;2023-01-31T12:09:41;101840.25;;;6.82;100.00
31538;BME280;18147;51.952;6.146;2023-01-31T12:14:46;101840.81;;;6.92;100.00
31538;BME280;18147;51.952;6.146;2023-01-31T12:17:15;101840.53;;;7.01;100.00
31538;BME280;18147;51.952;6.146;2023-01-31T12:28:50;101851.28;;;6.96;100.00
31538;BME280;18147;51.952;6.146;2023-01-31T12:34:41;101844.41;;;6.91;100.00
31538;BME280;18147;51.952;6.146;2023-01-31T12:51:03;101845.84;;;7.01;100.00
31538;BME280;18147;51.952;6.146;2023-01-31T13:07:00;101836.78;;;7.08;100.00
31538;BME280;18147;51.952;6.146;2023-01-31T13:09:31;101836.94;;;7.04;100.00
31538;BME280;18147;51.952;6.146;2023-01-31T13:12:17;101841.03;;;7.12;100.00
31538;BME280;18147;51.952;6.146;2023-01-31T13:14:54;101830.56;;;7.08;100.00
31538;BME280;18147;51.952;6.146;2023-01-31T13:17:25;101831.47;;;7.08;100.00
31538;BME280;18147;51.952;6.146;2023-01-31T13:19:58;101825.13;;;7.12;100.00
31538;BME280;18147;51.952;6.146;2023-01-31T13:22:28;101819.66;;;7.17;100.00
31538;BME280;18147;51.952;6.146;2023-01-31T13:25:13;101812.84;;;7.10;100.00
31538;BME280;18147;51.952;6.146;2023-01-31T13:27:43;101816.16;;;7.16;100.00
31538;BME280;18147;51.952;6.146;2023-01-31T13:30:34;101812.63;;;7.16;100.00
31538;BME280;18147;51.952;6.146;2023-01-31T13:33:17;101815.53;;;7.35;100.00
31538;BME280;18147;51.952;6.146;2023-01-31T13:35:46;101806.94;;;7.28;100.00
31538;BME280;18147;51.952;6.146;2023-01-31T13:38:17;101810.78;;;7.44;100.00
31538;BME280;18147;51.952;6.146;2023-01-31T13:40:48;101802.22;;;7.36;100.00
31538;BME280;18147;51.952;6.146;2023-01-31T13:43:15;101806.41;;;7.43;100.00
31538;BME280;18147;51.952;6.146;2023-01-31T13:45:55;101797.28;;;7.50;100.00
31538;BME280;18147;51.952;6.146;2023-01-31T13:48:41;101800.25;;;7.41;100.00
31538;BME280;18147;51.952;6.146;2023-01-31T13:51:18;101808.88;;;7.48;100.00
31538;BME280;18147;51.952;6.146;2023-01-31T13:53:54;101809.69;;;7.50;100.00
31538;BME280;18147;51.952;6.146;2023-01-31T13:56:28;101811.44;;;7.51;100.00
31538;BME280;18147;51.952;6.146;2023-01-31T13:58:55;101811.88;;;7.64;100.00
31538;BME280;18147;51.952;6.146;2023-01-31T14:01:26;101805.09;;;7.55;100.00
31538;BME280;18147;51.952;6.146;2023-01-31T14:09:33;101827.50;;;7.71;100.00
31538;BME280;18147;51.952;6.146;2023-01-31T14:12:01;101825.88;;;7.67;100.00
31538;BME280;18147;51.952;6.146;2023-01-31T14:22:25;101799.28;;;7.94;100.00
31538;BME280;18147;51.952;6.146;2023-01-31T14:27:37;101815.31;;;7.91;100.00
31538;BME280;18147;51.952;6.146;2023-01-31T14:38:04;101818.38;;;7.80;100.00
31538;BME280;18147;51.952;6.146;2023-01-31T14:43:40;101818.59;;;7.97;100.00
31538;BME280;18147;51.952;6.146;2023-01-31T14:57:16;101842.25;;;8.05;100.00
31538;BME280;18147;51.952;6.146;2023-01-31T15:05:13;101848.25;;;8.10;100.00
31538;BME280;18147;51.952;6.146;2023-01-31T15:08:00;101850.66;;;8.16;100.00
31538;BME280;18147;51.952;6.146;2023-01-31T15:10:54;101854.25;;;8.15;100.00
31538;BME280;18147;51.952;6.146;2023-01-31T15:16:18;101863.84;;;8.19;100.00
31538;BME280;18147;51.952;6.146;2023-01-31T15:21:24;101855.13;;;8.16;100.00
31538;BME280;18147;51.952;6.146;2023-01-31T15:23:51;101856.06;;;8.15;100.00